createdAt,value
2023-09-12T00:00:14.259Z,6.65
2023-09-12T00:03:23.215Z,6.38
2023-09-12T00:06:27.229Z,7.30
2023-09-12T00:09:31.428Z,6.32
2023-09-12T00:12:35.395Z,6.75
2023-09-12T00:15:40.097Z,6.65
2023-09-12T00:18:44.625Z,6.90
2023-09-12T00:21:48.566Z,7.20
2023-09-12T00:24:52.638Z,6.82
2023-09-12T00:27:56.678Z,6.32
2023-09-12T00:31:00.581Z,7.13
2023-09-12T00:34:04.436Z,6.70
2023-09-12T00:37:08.278Z,6.25
2023-09-12T00:40:12.237Z,5.97
2023-09-12T00:43:17.575Z,7.00
2023-09-12T00:46:24.035Z,6.78
2023-09-12T00:49:29.273Z,6.68
2023-09-12T00:52:34.480Z,7.10
2023-09-12T00:55:45.217Z,6.85
2023-09-12T00:58:52.230Z,7.00
2023-09-12T01:01:56.499Z,6.25
2023-09-12T01:05:00.448Z,6.43
2023-09-12T01:08:04.835Z,6.07
2023-09-12T01:11:09.739Z,6.78
2023-09-12T01:14:13.976Z,7.07
2023-09-12T01:17:18.450Z,6.88
2023-09-12T01:20:28.669Z,5.97
2023-09-12T01:24:14.403Z,6.68
2023-09-12T01:27:36.100Z,6.60
2023-09-12T01:30:43.200Z,6.28
2023-09-12T01:33:47.230Z,6.25
2023-09-12T01:36:51.096Z,6.45
2023-09-12T01:39:55.168Z,6.53
2023-09-12T01:43:02.543Z,6.57
2023-09-12T01:46:06.993Z,6.75
2023-09-12T01:49:12.835Z,6.68
2023-09-12T01:52:17.813Z,6.25
2023-09-12T01:55:23.345Z,6.38
2023-09-12T01:58:27.694Z,6.68
2023-09-12T02:01:31.737Z,7.18
2023-09-12T02:04:35.883Z,6.68
2023-09-12T02:07:42.359Z,6.57
2023-09-12T02:10:46.472Z,6.38
2023-09-12T02:13:50.226Z,6.53
2023-09-12T02:16:54.073Z,6.60
2023-09-12T02:19:58.129Z,6.93
2023-09-12T02:23:02.493Z,6.65
2023-09-12T02:26:06.683Z,6.53
2023-09-12T02:29:10.911Z,6.63
2023-09-12T02:32:15.178Z,7.30
2023-09-12T02:35:19.306Z,6.65
2023-09-12T02:38:23.691Z,6.25
2023-09-12T02:41:28.078Z,6.85
2023-09-12T02:44:32.173Z,6.88
2023-09-12T02:47:36.213Z,7.03
2023-09-12T02:50:40.150Z,6.85
2023-09-12T02:53:44.457Z,6.82
2023-09-12T02:56:48.657Z,6.70
2023-09-12T02:59:52.914Z,7.20
2023-09-12T03:02:56.824Z,6.45
2023-09-12T03:06:03.906Z,7.07
2023-09-12T03:09:08.108Z,6.72
2023-09-12T03:12:12.447Z,6.95
2023-09-12T03:15:16.410Z,7.10
2023-09-12T03:18:20.770Z,7.07
2023-09-12T03:21:24.996Z,7.45
2023-09-12T03:24:30.094Z,7.68
2023-09-12T03:27:34.410Z,7.20
2023-09-12T03:30:39.512Z,7.65
2023-09-12T03:33:49.050Z,7.28
2023-09-12T03:36:53.056Z,7.63
2023-09-12T03:39:56.744Z,7.40
2023-09-12T03:43:00.898Z,7.68
2023-09-12T03:46:05.294Z,7.80
2023-09-12T03:49:09.029Z,7.38
2023-09-12T03:52:12.886Z,7.38
2023-09-12T03:55:17.747Z,7.78
2023-09-12T03:58:21.842Z,8.05
2023-09-12T04:01:27.328Z,7.97
2023-09-12T04:04:32.258Z,8.45
2023-09-12T04:07:36.435Z,7.72
2023-09-12T04:10:40.440Z,8.10
2023-09-12T04:13:44.966Z,8.38
2023-09-12T04:16:49.428Z,8.05
2023-09-12T04:19:53.450Z,7.75
2023-09-12T04:22:57.568Z,7.70
2023-09-12T04:26:04.305Z,7.72
2023-09-12T04:29:08.504Z,8.43
2023-09-12T04:32:13.112Z,7.82
2023-09-12T04:35:20.314Z,7.32
2023-09-12T04:38:26.183Z,7.47
2023-09-12T04:41:30.921Z,8.18
2023-09-12T04:44:37.140Z,7.70
2023-09-12T04:47:41.313Z,7.40
2023-09-12T04:50:45.489Z,7.30
2023-09-12T04:53:52.754Z,7.22
2023-09-12T04:56:56.737Z,7.97
2023-09-12T05:00:00.493Z,7.45
2023-09-12T05:03:05.147Z,7.72
2023-09-12T05:06:09.372Z,8.18
2023-09-12T05:09:13.365Z,7.75
2023-09-12T05:12:17.806Z,7.53
2023-09-12T05:15:22.033Z,7.38
2023-09-12T05:18:26.353Z,7.35
2023-09-12T05:21:30.513Z,8.30
2023-09-12T05:24:34.561Z,8.05
2023-09-12T05:27:38.771Z,7.40
2023-09-12T05:30:44.090Z,7.88
2023-09-12T05:33:48.350Z,7.80
2023-09-12T05:36:52.379Z,8.23
2023-09-12T05:39:56.536Z,7.80
2023-09-12T05:43:00.874Z,8.52
2023-09-12T05:46:05.035Z,8.60
2023-09-12T05:49:09.189Z,7.80
2023-09-12T05:52:13.148Z,8.02
2023-09-12T05:55:18.661Z,8.02
2023-09-12T05:58:23.076Z,8.27
2023-09-12T06:01:27.279Z,7.90
2023-09-12T06:04:31.461Z,7.75
2023-09-12T06:07:36.301Z,7.60
2023-09-12T06:10:40.481Z,8.00
2023-09-12T06:13:44.890Z,7.97
2023-09-12T06:16:49.272Z,8.23
2023-09-12T06:19:55.145Z,7.40
2023-09-12T06:23:00.577Z,7.22
2023-09-12T06:26:04.649Z,7.30
2023-09-12T06:29:09.006Z,7.18
2023-09-12T06:32:13.393Z,7.50
2023-09-12T06:35:17.848Z,6.80
2023-09-12T06:38:23.801Z,6.30
2023-09-12T06:41:28.293Z,7.35
2023-09-12T06:44:32.650Z,6.90
2023-09-12T06:47:36.662Z,7.05
2023-09-12T06:50:40.715Z,6.40
2023-09-12T06:53:45.114Z,7.20
2023-09-12T06:56:49.639Z,7.60
2023-09-12T06:59:53.715Z,7.30
2023-09-12T07:02:58.444Z,7.55
2023-09-12T07:06:04.119Z,7.35
2023-09-12T07:09:09.804Z,6.90
2023-09-12T07:12:14.003Z,7.03
2023-09-12T07:15:18.338Z,6.60
2023-09-12T07:18:22.868Z,6.80
2023-09-12T07:21:27.309Z,6.30
2023-09-12T07:24:31.888Z,7.18
2023-09-12T07:27:36.086Z,6.63
2023-09-12T07:30:40.330Z,7.30
2023-09-12T07:33:44.524Z,7.80
2023-09-12T07:36:49.118Z,7.22
2023-09-12T07:39:53.530Z,7.13
2023-09-12T07:42:57.622Z,6.25
2023-09-12T07:46:01.867Z,6.75
2023-09-12T07:49:05.873Z,6.68
2023-09-12T07:52:10.280Z,6.45
2023-09-12T07:55:14.178Z,6.57
2023-09-12T07:58:22.747Z,6.30
2023-09-12T08:01:28.414Z,6.25
2023-09-12T08:04:32.642Z,6.63
2023-09-12T08:07:37.289Z,6.70
2023-09-12T08:10:41.835Z,6.55
2023-09-12T08:13:50.780Z,6.32
2023-09-12T08:16:55.235Z,6.97
2023-09-12T08:19:59.530Z,8.02
2023-09-12T08:23:03.891Z,6.70
2023-09-12T08:26:08.825Z,7.00
2023-09-12T08:29:12.791Z,7.15
2023-09-12T08:32:17.055Z,7.00
2023-09-12T08:35:21.039Z,6.85
2023-09-12T08:38:24.842Z,7.07
2023-09-12T08:41:28.894Z,7.80
2023-09-12T08:44:33.122Z,7.63
2023-09-12T08:47:40.140Z,7.20
2023-09-12T08:50:47.548Z,8.43
2023-09-12T08:53:52.467Z,8.13
2023-09-12T08:56:56.991Z,7.75
2023-09-12T09:00:11.480Z,9.05
2023-09-12T09:03:15.758Z,8.68
2023-09-12T09:06:21.948Z,7.65
2023-09-12T09:09:28.766Z,6.78
2023-09-12T09:12:37.040Z,7.22
2023-09-12T09:15:43.265Z,5.82
2023-09-12T09:18:59.300Z,6.32
2023-09-12T09:22:07.447Z,7.55
2023-09-12T09:25:13.495Z,8.10
2023-09-12T09:28:19.567Z,7.93
2023-09-12T09:31:24.070Z,8.18
2023-09-12T09:34:30.440Z,7.43
2023-09-12T09:37:34.637Z,7.40
2023-09-12T09:40:38.808Z,8.00
2023-09-12T09:43:44.764Z,8.20
2023-09-12T09:46:55.628Z,9.80
2023-09-12T09:50:00.564Z,10.80
2023-09-12T09:53:06.494Z,9.60
2023-09-12T09:56:16.449Z,10.82
2023-09-12T09:59:28.111Z,7.93
2023-09-12T10:02:33.019Z,10.18
2023-09-12T10:05:38.635Z,9.50
2023-09-12T10:08:44.636Z,9.60
2023-09-12T10:11:49.329Z,9.50
2023-09-12T10:14:53.736Z,9.05
2023-09-12T10:18:00.004Z,7.63
2023-09-12T10:21:12.853Z,7.95
2023-09-12T10:24:17.401Z,8.27
2023-09-12T10:27:22.948Z,9.90
2023-09-12T10:30:27.834Z,8.70
2023-09-12T10:33:32.680Z,10.38
2023-09-12T10:36:41.955Z,8.65
2023-09-12T10:39:46.782Z,9.32
2023-09-12T10:42:52.326Z,8.00
2023-09-12T10:45:57.799Z,7.50
2023-09-12T10:49:01.911Z,8.52
2023-09-12T10:52:06.716Z,7.75
2023-09-12T10:55:18.391Z,8.30
2023-09-12T10:58:22.721Z,7.75
2023-09-12T11:01:27.543Z,7.97
2023-09-12T11:04:34.629Z,8.00
2023-09-12T11:07:41.791Z,7.68
2023-09-12T11:10:46.085Z,7.72
2023-09-12T11:14:07.008Z,7.40
2023-09-12T11:17:11.809Z,8.10
2023-09-12T11:20:18.192Z,8.02
2023-09-12T11:23:22.782Z,6.90
2023-09-12T11:26:27.036Z,7.47
2023-09-12T11:29:39.590Z,7.65
2023-09-12T11:32:47.142Z,7.43
2023-09-12T11:35:54.045Z,7.80
2023-09-12T11:39:03.448Z,8.23
2023-09-12T11:42:13.975Z,8.60
2023-09-12T11:45:20.508Z,8.40
2023-09-12T11:48:24.788Z,8.60
2023-09-12T11:51:29.296Z,7.72
2023-09-12T11:54:33.545Z,7.32
2023-09-12T11:57:37.569Z,8.07
2023-09-12T12:00:56.452Z,8.10
2023-09-12T12:04:00.406Z,7.93
2023-09-12T12:07:05.643Z,7.35
2023-09-12T12:10:09.562Z,7.00
2023-09-12T12:13:18.163Z,7.00
2023-09-12T12:16:23.942Z,7.22
2023-09-12T12:19:29.595Z,6.90
2023-09-12T12:22:33.774Z,7.07
2023-09-12T12:25:38.084Z,7.13
2023-09-12T12:28:42.686Z,6.75
2023-09-12T12:31:47.192Z,7.20
2023-09-12T12:35:40.219Z,6.38
2023-09-12T12:38:16.326Z,6.30
2023-09-12T12:41:35.626Z,6.80
2023-09-12T12:44:45.500Z,6.50
2023-09-12T12:47:59.027Z,6.45
2023-09-12T12:51:17.994Z,6.55
2023-09-12T12:54:23.546Z,6.03
2023-09-12T12:57:28.177Z,6.68
2023-09-12T13:00:33.021Z,6.43
2023-09-12T13:03:37.178Z,6.65
2023-09-12T13:06:42.139Z,6.43
2023-09-12T13:09:49.161Z,5.88
2023-09-12T13:12:53.423Z,6.38
2023-09-12T13:15:57.806Z,6.30
2023-09-12T13:19:02.350Z,5.78
2023-09-12T13:22:06.630Z,6.22
2023-09-12T13:25:11.454Z,5.90
2023-09-12T13:28:15.649Z,5.78
2023-09-12T13:31:19.952Z,6.20
2023-09-12T13:34:24.110Z,5.90
2023-09-12T13:37:28.634Z,5.75
2023-09-12T13:40:33.055Z,5.25
2023-09-12T13:43:37.365Z,6.15
2023-09-12T13:46:45.237Z,5.97
2023-09-12T13:49:50.264Z,5.80
2023-09-12T13:52:57.062Z,6.22
2023-09-12T13:56:27.756Z,5.63
2023-09-12T13:59:34.401Z,5.90
2023-09-12T14:02:42.670Z,6.13
2023-09-12T14:05:46.941Z,6.00
2023-09-12T14:08:53.260Z,5.40
2023-09-12T14:11:57.872Z,5.80
2023-09-12T14:15:08.737Z,5.40
2023-09-12T14:18:13.796Z,5.75
2023-09-12T14:21:19.584Z,6.03
2023-09-12T14:24:24.336Z,5.90
2023-09-12T14:27:30.776Z,6.13
2023-09-12T14:30:37.133Z,5.45
2023-09-12T14:33:41.883Z,5.72
2023-09-12T14:36:49.174Z,6.55
2023-09-12T14:39:53.714Z,5.82
2023-09-12T14:42:57.919Z,5.82
2023-09-12T14:46:02.414Z,5.90
2023-09-12T14:49:06.920Z,4.90
2023-09-12T14:52:20.126Z,5.72
2023-09-12T14:55:28.263Z,5.38
2023-09-12T14:58:32.471Z,5.47
2023-09-12T15:01:38.455Z,6.13
2023-09-12T15:04:42.770Z,5.20
2023-09-12T15:07:47.105Z,6.00
2023-09-12T15:10:51.154Z,4.88
2023-09-12T15:13:55.289Z,5.50
2023-09-12T15:17:01.264Z,5.30
2023-09-12T15:20:09.001Z,5.60
2023-09-12T15:23:13.146Z,6.07
2023-09-12T15:26:17.219Z,5.45
2023-09-12T15:29:21.837Z,5.30
2023-09-12T15:32:25.926Z,5.43
2023-09-12T15:35:29.945Z,5.38
2023-09-12T15:38:33.892Z,5.38
2023-09-12T15:41:38.210Z,5.63
2023-09-12T15:44:58.131Z,5.63
2023-09-12T15:48:05.548Z,5.70
2023-09-12T15:51:09.908Z,6.07
2023-09-12T15:54:13.799Z,5.28
2023-09-12T15:57:17.904Z,6.88
2023-09-12T16:00:22.066Z,5.53
2023-09-12T16:03:26.756Z,5.63
2023-09-12T16:06:32.288Z,5.57
2023-09-12T16:09:36.641Z,5.22
2023-09-12T16:12:41.419Z,5.45
2023-09-12T16:15:45.495Z,5.20
2023-09-12T16:18:49.848Z,5.28
2023-09-12T16:21:54.021Z,5.25
2023-09-12T16:24:58.585Z,5.93
2023-09-12T16:28:02.933Z,5.57
2023-09-12T16:31:07.279Z,5.38
2023-09-12T16:34:11.451Z,5.47
2023-09-12T16:37:15.756Z,5.25
2023-09-12T16:40:20.168Z,5.22
2023-09-12T16:43:24.590Z,5.53
2023-09-12T16:46:28.962Z,5.63
2023-09-12T16:49:34.598Z,5.80
2023-09-12T16:52:38.916Z,6.68
2023-09-12T16:55:43.776Z,5.70
2023-09-12T16:58:48.046Z,6.38
2023-09-12T17:01:52.465Z,5.85
2023-09-12T17:04:56.480Z,6.38
2023-09-12T17:08:00.549Z,6.35
2023-09-12T17:11:04.648Z,5.72
2023-09-12T17:14:08.776Z,5.70
2023-09-12T17:17:12.830Z,6.03
2023-09-12T17:20:16.838Z,6.50
2023-09-12T17:23:21.227Z,6.40
2023-09-12T17:26:25.612Z,6.45
2023-09-12T17:29:30.413Z,6.43
2023-09-12T17:32:34.442Z,5.68
2023-09-12T17:35:38.572Z,6.38
2023-09-12T17:38:43.539Z,6.25
2023-09-12T17:41:47.644Z,6.10
2023-09-12T17:44:51.703Z,6.40
2023-09-12T17:47:56.349Z,6.30
2023-09-12T17:51:00.003Z,6.18
2023-09-12T17:54:04.089Z,6.35
2023-09-12T17:57:08.895Z,6.13
2023-09-12T18:00:13.324Z,6.80
2023-09-12T18:03:17.201Z,6.90
2023-09-12T18:06:22.094Z,6.50
2023-09-12T18:09:26.502Z,6.30
2023-09-12T18:12:31.579Z,6.80
2023-09-12T18:15:35.719Z,6.90
2023-09-12T18:18:39.807Z,7.15
2023-09-12T18:21:43.842Z,6.95
2023-09-12T18:24:48.272Z,6.90
2023-09-12T18:27:52.441Z,6.80
2023-09-12T18:30:56.912Z,6.50
2023-09-12T18:34:01.081Z,6.57
2023-09-12T18:37:06.165Z,7.45
2023-09-12T18:40:10.835Z,6.95
2023-09-12T18:43:17.033Z,6.95
2023-09-12T18:46:22.048Z,7.25
2023-09-12T18:49:26.502Z,7.43
2023-09-12T18:52:40.366Z,7.35
2023-09-12T18:55:52.935Z,7.35
2023-09-12T18:58:56.924Z,7.78
2023-09-12T19:02:00.978Z,7.80
2023-09-12T19:05:05.799Z,8.65
2023-09-12T19:08:10.919Z,8.98
2023-09-12T19:11:17.060Z,7.32
2023-09-12T19:14:21.136Z,8.45
2023-09-12T19:17:25.542Z,7.15
2023-09-12T19:20:29.809Z,7.80
2023-09-12T19:23:34.266Z,7.97
2023-09-12T19:26:38.471Z,8.10
2023-09-12T19:29:50.657Z,8.00
2023-09-12T19:32:58.536Z,7.80
2023-09-12T19:36:02.668Z,9.10
2023-09-12T19:39:06.952Z,8.05
2023-09-12T19:42:11.221Z,7.75
2023-09-12T19:45:15.407Z,6.82
2023-09-12T19:48:19.797Z,6.60
2023-09-12T19:51:23.945Z,5.80
2023-09-12T19:54:28.475Z,5.70
2023-09-12T19:57:32.289Z,5.60
2023-09-12T20:00:36.409Z,5.63
2023-09-12T20:03:41.082Z,4.97
2023-09-12T20:06:45.631Z,5.38
2023-09-12T20:09:49.863Z,5.13
2023-09-12T20:12:53.927Z,4.75
2023-09-12T20:15:58.191Z,4.80
2023-09-12T20:19:06.480Z,4.38
2023-09-12T20:22:11.703Z,4.43
2023-09-12T20:25:15.872Z,3.97
2023-09-12T20:28:20.991Z,4.18
2023-09-12T20:31:24.713Z,4.45
2023-09-12T20:34:31.903Z,4.00
2023-09-12T20:37:36.002Z,3.80
2023-09-12T20:40:40.308Z,3.80
2023-09-12T20:43:45.026Z,3.88
2023-09-12T20:46:49.644Z,3.50
2023-09-12T20:49:57.510Z,3.35
2023-09-12T20:53:07.700Z,3.60
2023-09-12T20:56:14.418Z,3.40
2023-09-12T20:59:18.342Z,3.50
2023-09-12T21:02:22.544Z,3.45
2023-09-12T21:05:28.058Z,3.15
2023-09-12T21:08:32.646Z,3.30
2023-09-12T21:11:36.892Z,3.17
2023-09-12T21:14:41.037Z,3.40
2023-09-12T21:17:45.516Z,3.30
2023-09-12T21:20:49.421Z,3.28
2023-09-12T21:23:53.315Z,3.20
2023-09-12T21:26:57.459Z,3.83
2023-09-12T21:30:04.119Z,3.20
2023-09-12T21:33:08.072Z,3.47
2023-09-12T21:36:12.274Z,3.65
2023-09-12T21:39:16.772Z,3.83
2023-09-12T21:42:21.129Z,3.40
2023-09-12T21:45:25.350Z,3.30
2023-09-12T21:48:29.383Z,3.47
2023-09-12T21:51:33.681Z,3.33
2023-09-12T21:54:38.271Z,3.15
2023-09-12T21:57:42.603Z,2.92
2023-09-12T22:00:46.682Z,2.95
2023-09-12T22:03:50.853Z,3.13
2023-09-12T22:06:55.313Z,2.85
2023-09-12T22:10:01.634Z,3.08
2023-09-12T22:13:06.842Z,3.00
2023-09-12T22:16:11.335Z,2.75
2023-09-12T22:19:15.282Z,2.80
2023-09-12T22:22:19.482Z,3.05
2023-09-12T22:25:23.689Z,2.88
2023-09-12T22:28:27.647Z,2.70
2023-09-12T22:31:32.795Z,2.78
2023-09-12T22:34:38.189Z,2.83
2023-09-12T22:37:42.509Z,3.10
2023-09-12T22:40:46.812Z,3.03
2023-09-12T22:43:51.065Z,3.33
2023-09-12T22:46:55.604Z,2.85
2023-09-12T22:50:00.158Z,3.20
2023-09-12T22:53:05.284Z,2.97
2023-09-12T22:56:09.223Z,2.80
2023-09-12T22:59:14.431Z,2.90
2023-09-12T23:02:18.513Z,2.78
2023-09-12T23:05:22.872Z,2.58
2023-09-12T23:08:27.072Z,2.85
2023-09-12T23:11:31.353Z,2.90
2023-09-12T23:14:35.543Z,2.88
2023-09-12T23:17:39.611Z,2.65
2023-09-12T23:20:46.218Z,2.63
2023-09-12T23:23:49.986Z,2.88
2023-09-12T23:26:53.902Z,2.70
2023-09-12T23:29:58.919Z,2.80
2023-09-12T23:33:04.142Z,2.83
2023-09-12T23:36:10.479Z,2.90
2023-09-12T23:39:16.087Z,3.10
2023-09-12T23:42:21.099Z,2.80
2023-09-12T23:45:25.091Z,2.92
2023-09-12T23:48:29.134Z,2.83
2023-09-12T23:51:33.392Z,3.95
2023-09-12T23:54:37.448Z,4.15
2023-09-12T23:57:41.984Z,5.28
